F/V Oceanie — FVBW — position and weather

sailwx.info

Track history (hours):
 
Tides and Currents Weather Stations Pressure Air Temp Water Temp Dewpoint Dewpoint Depression Visibility Wind Speed Wind Dir Waves Ship Positions

F/V Oceanie

Last reported at 2017-May-26 11:00 UTC. Time now 2017-May-26 14:46 UTC.
Position N 47°18' W 003°23'.

Length 16 m.

Type: Fishing. MMSI: 228370000.

Date/timePositionNaut miles runAvg speedWind from/ knotsBaromVisibWave heightAir tempDewpointWater temp
2017-May-26 11:00N 47°18' W 003°23'2 3.4
2017-May-26 10:30N 47°17' W 003°21'1 2.9
2017-May-26 10:00N 47°17' W 003°19'2 3.6
2017-May-26 09:30N 47°17' W 003°21'1 2.5
2017-May-26 09:00N 47°18' W 003°22'2 4.4
2017-May-26 08:30N 47°17' W 003°20'1 1.5
2017-May-26 08:00N 47°17' W 003°20'2 4.4
2017-May-26 07:30N 47°18' W 003°23'1 1.4
2017-May-26 07:00N 47°18' W 003°22'2 4.1
2017-May-26 06:30N 47°17' W 003°20'1 1.6
2017-May-26 06:00N 47°17' W 003°19'2 4.2
2017-May-26 05:30N 47°18' W 003°23'1 1.6
2017-May-26 05:00N 47°18' W 003°21'2 4.0
2017-May-26 04:30N 47°16' W 003°19'1 2.7
2017-May-26 04:00N 47°17' W 003°21'2 4.5
2017-May-26 03:30N 47°19' W 003°22'5 9.2
2017-May-26 03:00N 47°24' W 003°22'4 9.0
2017-May-26 02:30N 47°28' W 003°22'4 8.8
2017-May-26 02:00N 47°33' W 003°22'4 8.8
2017-May-26 01:30N 47°37' W 003°22'4 8.7
2017-May-26 01:00N 47°42' W 003°22'2 4.5
2017-May-26 00:30N 47°44' W 003°22'0 0.3
2017-May-26 00:00N 47°44' W 003°22'0 0.0
2017-May-25 23:30N 47°44' W 003°22'4 8.3
2017-May-25 23:00N 47°40' W 003°22'5 9.3
2017-May-25 22:30N 47°35' W 003°24'4 8.9
2017-May-25 22:00N 47°31' W 003°27'4 8.6
2017-May-25 21:30N 47°27' W 003°29'2 4.4
2017-May-25 21:00N 47°25' W 003°29'2 4.3
2017-May-25 20:30N 47°23' W 003°28'2 3.4
2017-May-25 20:00N 47°22' W 003°31'2 4.1
2017-May-25 19:30N 47°24' W 003°32'2 3.5
2017-May-25 19:00N 47°25' W 003°33'1 2.4
2017-May-25 18:30N 47°25' W 003°32'2 4.1
2017-May-25 18:00N 47°24' W 003°30'1 2.8
2017-May-25 17:30N 47°25' W 003°28'2 4.3
2017-May-25 17:00N 47°27' W 003°29'2 3.6
2017-May-25 16:30N 47°27' W 003°31'2 3.9
2017-May-25 16:00N 47°25' W 003°29'2 3.3
2017-May-25 15:30N 47°27' W 003°29'2 3.7
2017-May-25 15:00N 47°28' W 003°31'2 3.1
2017-May-25 14:30N 47°27' W 003°32'2 2.3
2017-May-25 13:30N 47°25' W 003°31'2 3.9
2017-May-25 13:00N 47°24' W 003°29'1 2.9
2017-May-25 12:30N 47°23' W 003°31'2 3.5
2017-May-25 12:00N 47°24' W 003°32'2 3.8
2017-May-25 11:30N 47°26' W 003°34'1 2.7
2017-May-25 11:00N 47°25' W 003°32'2 4.2
2017-May-25 10:30N 47°24' W 003°29'2 3.2
2017-May-25 10:00N 47°22' W 003°30'2 3.0
2017-May-25 09:30N 47°23' W 003°32'2 3.3
2017-May-25 09:00N 47°25' W 003°33'1 2.9
2017-May-25 08:30N 47°26' W 003°33'1 1.6
2017-May-25 08:00N 47°25' W 003°33'2 3.1
2017-May-25 07:30N 47°24' W 003°31'2 3.7
2017-May-25 07:00N 47°25' W 003°29'1 1.3
2017-May-25 06:30N 47°25' W 003°29'2 3.9
2017-May-25 06:00N 47°23' W 003°28'1 1.5
2017-May-25 05:30N 47°23' W 003°27'2 4.0
2017-May-25 05:00N 47°25' W 003°29'2 4.3
2017-May-25 04:30N 47°27' W 003°30'2 4.1
2017-May-25 04:00N 47°29' W 003°31'2 3.1
2017-May-25 03:30N 47°30' W 003°32'1 2.9
2017-May-25 03:00N 47°31' W 003°30'4 7.8
2017-May-25 02:30N 47°34' W 003°26'4 7.4
2017-May-25 02:00N 47°37' W 003°23'4 7.9
2017-May-25 01:30N 47°41' W 003°22'3 6.0
2017-May-25 01:00N 47°44' W 003°22'0 0.0
2017-May-25 00:30N 47°44' W 003°22'0 0.0
2017-May-25 00:00N 47°44' W 003°22'3 5.9
2017-May-24 23:30N 47°41' W 003°22'5 9.2
2017-May-24 23:00N 47°36' W 003°23'4 9.0
2017-May-24 22:30N 47°32' W 003°27'4 9.0
2017-May-24 22:00N 47°29' W 003°31'2 3.4
2017-May-24 21:30N 47°27' W 003°30'1 3.0
2017-May-24 21:00N 47°28' W 003°31'2 3.0
2017-May-24 20:30N 47°27' W 003°32'2 4.4
2017-May-24 20:00N 47°25' W 003°30'2 4.1
2017-May-24 19:30N 47°23' W 003°29'1 2.8
2017-May-24 19:00N 47°23' W 003°31'1 2.3
2017-May-24 18:30N 47°24' W 003°32'2 4.1
2017-May-24 18:00N 47°23' W 003°30'2 3.1
2017-May-24 17:30N 47°23' W 003°27'2 3.4
2017-May-24 17:00N 47°24' W 003°28'2 3.9
2017-May-24 16:30N 47°22' W 003°30'2 3.2
2017-May-24 16:00N 47°21' W 003°29'2 3.1
2017-May-24 15:30N 47°22' W 003°28'2 4.0
2017-May-24 15:00N 47°24' W 003°28'2 3.2
2017-May-24 14:30N 47°23' W 003°30'1 0.8
2017-May-24 13:30N 47°24' W 003°31'1 3.0
2017-May-24 13:00N 47°23' W 003°29'1 1.8
2017-May-24 12:30N 47°22' W 003°30'2 3.9
2017-May-24 12:00N 47°21' W 003°28'2 3.0
2017-May-24 11:30N 47°22' W 003°29'2 4.2
2017-May-24 11:00N 47°24' W 003°31'1 2.1
2017-May-24 10:30N 47°24' W 003°33'2 3.4
2017-May-24 10:00N 47°23' W 003°30'2 3.6
2017-May-24 09:30N 47°24' W 003°28'2 3.1
2017-May-24 09:00N 47°24' W 003°30'2 3.5
2017-May-24 08:30N 47°24' W 003°33'2 3.9
2017-May-24 08:00N 47°23' W 003°30'2 4.0
2017-May-24 07:30N 47°21' W 003°30'1 3.0
2017-May-24 07:00N 47°21' W 003°28'2 4.0
2017-May-24 06:30N 47°23' W 003°29'1 1.8
2017-May-24 06:00N 47°24' W 003°27'2 3.8
2017-May-24 05:30N 47°22' W 003°28'2 4.0
2017-May-24 05:00N 47°20' W 003°26'2 3.3
2017-May-24 04:30N 47°21' W 003°28'2 4.2
2017-May-24 04:00N 47°23' W 003°28'2 4.5
2017-May-24 03:30N 47°25' W 003°28'3 6.7
2017-May-24 03:00N 47°29' W 003°27'3 6.7
2017-May-24 02:30N 47°32' W 003°25'3 6.9
2017-May-24 02:00N 47°35' W 003°24'4 7.2
2017-May-24 01:30N 47°38' W 003°23'4 7.1
2017-May-24 01:00N 47°42' W 003°22'2 3.4
2017-May-24 00:30N 47°44' W 003°22'0 0.0
2017-May-24 00:00N 47°44' W 003°22'0 0.7
2017-May-23 23:30N 47°43' W 003°22'5 9.0
2017-May-23 23:00N 47°39' W 003°23'4 8.4
2017-May-23 22:30N 47°35' W 003°24'4 7.8
2017-May-23 22:00N 47°34' W 003°30'1 1.7
2017-May-23 21:30N 47°34' W 003°31'2 4.0
2017-May-23 21:00N 47°32' W 003°31'2 4.3
2017-May-23 20:30N 47°30' W 003°31'2 4.2
2017-May-23 20:00N 47°27' W 003°30'2 4.2
2017-May-23 19:30N 47°26' W 003°29'2 4.3
2017-May-23 19:00N 47°24' W 003°27'1 2.2
2017-May-23 18:30N 47°23' W 003°28'2 3.6
2017-May-23 18:00N 47°24' W 003°27'2 3.3
2017-May-23 17:30N 47°23' W 003°27'1 1.9
2017-May-23 17:00N 47°23' W 003°28'1 1.9
2017-May-23 16:30N 47°24' W 003°27'1 2.9
2017-May-23 16:00N 47°22' W 003°28'2 3.6
2017-May-23 15:30N 47°24' W 003°28'2 3.9
2017-May-23 15:00N 47°22' W 003°27'1 2.6
2017-May-23 14:30N 47°22' W 003°29'2 1.6
2017-May-23 13:30N 47°23' W 003°30'2 3.4
2017-May-23 13:00N 47°24' W 003°28'2 4.0
2017-May-23 12:30N 47°22' W 003°28'2 3.9
2017-May-23 12:00N 47°23' W 003°30'2 3.3
2017-May-23 11:30N 47°24' W 003°28'2 3.1
2017-May-23 11:01N 47°23' W 003°27'2 3.3
2017-May-23 10:30N 47°24' W 003°28'2 3.3
2017-May-23 10:01N 47°23' W 003°30'2 4.1
2017-May-23 09:30N 47°22' W 003°28'2 4.1
2017-May-23 09:00N 47°20' W 003°26'1 2.4
2017-May-23 08:30N 47°20' W 003°24'2 3.8
2017-May-23 08:00N 47°21' W 003°27'2 4.3
2017-May-23 07:30N 47°22' W 003°29'1 3.0
2017-May-23 07:00N 47°24' W 003°30'2 3.6
2017-May-23 06:30N 47°25' W 003°29'2 4.0
2017-May-23 06:00N 47°27' W 003°30'2 4.1
2017-May-23 05:30N 47°29' W 003°31'2 4.2
2017-May-23 05:00N 47°31' W 003°31'2 3.9
2017-May-23 04:31N 47°33' W 003°31'2 4.1
2017-May-23 04:00N 47°35' W 003°33'2 3.2
2017-May-23 03:30N 47°36' W 003°35'0 0.9
2017-May-23 03:00N 47°36' W 003°34'0 0.4
2017-May-23 02:30N 47°36' W 003°35'0 0.5
2017-May-23 02:01N 47°36' W 003°35'2 4.5
2017-May-23 01:30N 47°38' W 003°33'3 6.2
2017-May-23 01:00N 47°40' W 003°29'3 6.5
2017-May-23 00:31N 47°41' W 003°25'3 6.2
2017-May-23 00:01N 47°43' W 003°22'0 1.0
2017-May-22 23:30N 47°44' W 003°22'2 3.2
2017-May-22 23:00N 47°42' W 003°22'4 8.2
2017-May-22 22:30N 47°38' W 003°23'4 7.3
2017-May-22 22:00N 47°35' W 003°24'4 7.5
2017-May-22 21:30N 47°32' W 003°29'2 3.2
2017-May-22 21:00N 47°31' W 003°30'2 4.1
2017-May-22 20:30N 47°29' W 003°31'2 3.9
2017-May-22 20:00N 47°27' W 003°30'2 4.0
2017-May-22 19:30N 47°25' W 003°29'2 3.7
2017-May-22 19:01N 47°24' W 003°27'1 2.9
2017-May-22 18:30N 47°23' W 003°29'1 2.9
2017-May-22 18:00N 47°24' W 003°30'1 2.6
2017-May-22 17:30N 47°24' W 003°28'2 3.5
2017-May-22 17:01N 47°22' W 003°28'2 3.6
2017-May-22 16:30N 47°23' W 003°30'2 3.3
2017-May-22 16:01N 47°24' W 003°28'2 3.6
2017-May-22 15:31N 47°22' W 003°27'2 3.3
2017-May-22 15:00N 47°23' W 003°30'2 1.7
2017-May-22 14:00N 47°23' W 003°27'1 2.8
2017-May-22 13:29N 47°22' W 003°29'2 3.6
2017-May-22 13:00N 47°24' W 003°29'2 3.1
2017-May-22 12:30N 47°23' W 003°27'2 3.4
2017-May-22 12:01N 47°22' W 003°29'1 1.0
2017-May-22 11:30N 47°22' W 003°28'1 2.4
2017-May-22 11:00N 47°21' W 003°29'1 2.9
2017-May-22 10:30N 47°22' W 003°30'1 2.7
2017-May-22 10:01N 47°22' W 003°28'1 2.2
2017-May-22 09:30N 47°21' W 003°29'2 3.9
2017-May-22 09:00N 47°23' W 003°30'2 3.4
2017-May-22 08:30N 47°25' W 003°29'2 4.0
2017-May-22 08:01N 47°23' W 003°27'1 2.2
2017-May-22 07:31N 47°23' W 003°29'2 3.3
2017-May-22 07:00N 47°25' W 003°29'2 3.9
2017-May-22 06:30N 47°26' W 003°31'2 3.6
2017-May-22 06:00N 47°28' W 003°31'2 3.8
2017-May-22 05:30N 47°30' W 003°31'2 4.1
2017-May-22 05:00N 47°32' W 003°31'2 3.5
2017-May-22 04:30N 47°33' W 003°32'2 4.0
2017-May-22 04:00N 47°35' W 003°34'2 3.7
2017-May-22 03:30N 47°36' W 003°36'0 0.6
2017-May-22 03:00N 47°36' W 003°35'3 6.2
2017-May-22 02:30N 47°39' W 003°32'4 8.0
2017-May-22 02:00N 47°41' W 003°27'4 8.2
2017-May-22 01:30N 47°43' W 003°22'1 0.0
2017-May-19 23:00N 47°44' W 003°22'2 4.4
2017-May-19 22:30N 47°42' W 003°22'4 9.0
2017-May-19 22:00N 47°37' W 003°23'5 9.0
2017-May-19 21:30N 47°35' W 003°29'3 5.8
2017-May-19 21:00N 47°34' W 003°33'2 3.3
2017-May-19 20:30N 47°35' W 003°35'1 2.8
2017-May-19 20:00N 47°35' W 003°33'2 3.1
2017-May-19 19:30N 47°34' W 003°32'2 3.7
2017-May-19 19:00N 47°32' W 003°31'2 4.0
2017-May-19 18:30N 47°30' W 003°31'2 4.0
2017-May-19 18:00N 47°28' W 003°31'2 3.5
2017-May-19 17:30N 47°26' W 003°31'2 3.8
2017-May-19 17:00N 47°25' W 003°29'2 3.7
2017-May-19 16:30N 47°23' W 003°27'2 3.6
2017-May-19 16:00N 47°22' W 003°30'2 3.2
2017-May-19 15:30N 47°21' W 003°29'1 2.4
2017-May-19 15:00N 47°22' W 003°28'4 3.7
2017-May-19 14:00N 47°26' W 003°29'2 4.0
2017-May-19 13:30N 47°27' W 003°30'2 4.1
2017-May-19 13:00N 47°29' W 003°31'2 3.2
2017-May-19 12:30N 47°28' W 003°29'2 4.2
2017-May-19 12:00N 47°26' W 003°29'2 4.2
2017-May-19 11:30N 47°24' W 003°29'2 3.9
2017-May-19 11:00N 47°22' W 003°28'0 0.9
2017-May-19 10:30N 47°22' W 003°28'2 4.0
2017-May-19 10:00N 47°24' W 003°28'2 4.1
2017-May-19 09:30N 47°26' W 003°28'2 4.2
2017-May-19 09:00N 47°28' W 003°29'1 1.8
2017-May-19 08:30N 47°27' W 003°30'2 4.0
2017-May-19 08:00N 47°25' W 003°30'2 4.0
2017-May-19 07:30N 47°24' W 003°29'0 1.0
2017-May-19 07:00N 47°23' W 003°28'2 3.9
2017-May-19 06:30N 47°25' W 003°29'2 4.1
2017-May-19 06:00N 47°27' W 003°29'2 3.9
2017-May-19 05:30N 47°29' W 003°30'2 4.0
2017-May-19 05:00N 47°31' W 003°30'2 4.1
2017-May-19 04:30N 47°33' W 003°31'2 4.2
2017-May-19 04:00N 47°35' W 003°33'2 4.3
2017-May-19 03:30N 47°36' W 003°35'1 2.0
2017-May-19 03:00N 47°37' W 003°34'4 8.8
2017-May-19 02:30N 47°40' W 003°29'5 9.1
2017-May-19 02:00N 47°42' W 003°23'2 4.6
2017-May-19 01:30N 47°44' W 003°22'0 0.0
2017-May-19 01:00N 47°44' W 003°22'4 8.0
2017-May-19 00:30N 47°40' W 003°22'5 9.0
2017-May-19 00:00N 47°35' W 003°23'5 9.1
2017-May-18 23:30N 47°31' W 003°23'5 9.1
2017-May-18 23:00N 47°26' W 003°24'5 9.2
2017-May-18 22:30N 47°22' W 003°24'4 9.0
2017-May-18 22:00N 47°17' W 003°24'4 8.8
2017-May-18 21:30N 47°13' W 003°25'30 0.8
2017-May-17 06:50N 46°43' W 003°17'2 3.5
2017-May-17 06:20N 46°45' W 003°17'2 3.9
2017-May-17 05:56N 46°46' W 003°18'2 4.2
2017-May-17 05:26N 46°48' W 003°20'2 4.1
2017-May-17 05:00N 46°49' W 003°21'3 5.2
2017-May-17 04:30N 46°51' W 003°23'5 9.0
2017-May-17 03:59N 46°56' W 003°23'4 8.7
2017-May-17 03:30N 47°00' W 003°23'4 8.9
2017-May-17 03:00N 47°05' W 003°23'5 9.1
2017-May-17 02:30N 47°09' W 003°23'5 9.1
2017-May-17 01:59N 47°14' W 003°22'5 9.2
2017-May-17 01:27N 47°19' W 003°22'4 8.8
2017-May-17 00:57N 47°23' W 003°22'4 8.9
2017-May-17 00:30N 47°27' W 003°22'5 9.5
2017-May-17 00:00N 47°32' W 003°22'5 9.4
2017-May-16 23:30N 47°37' W 003°22'5 9.5
2017-May-16 22:59N 47°42' W 003°22'2 4.0
2017-May-16 22:30N 47°44' W 003°22'0 0.0
2017-May-16 22:00N 47°44' W 003°22'3 6.2
2017-May-16 21:29N 47°41' W 003°22'4 8.8
2017-May-16 21:00N 47°36' W 003°23'4 8.7
2017-May-16 20:30N 47°32' W 003°22'5 9.2
2017-May-16 19:58N 47°27' W 003°21'4 8.8
2017-May-16 19:28N 47°23' W 003°21'4 8.6
2017-May-16 19:00N 47°19' W 003°21'4 8.8
2017-May-16 18:30N 47°14' W 003°20'4 8.8
2017-May-16 18:00N 47°10' W 003°19'5 9.2
2017-May-16 17:30N 47°05' W 003°19'5 9.2
2017-May-16 17:00N 47°01' W 003°18'5 9.4
2017-May-16 16:30N 46°56' W 003°18'5 9.5
2017-May-16 16:00N 46°51' W 003°17'5 9.7
2017-May-16 15:30N 46°47' W 003°16'2 3.1
2017-May-16 15:00N 46°46' W 003°18'2 4.4
2017-May-16 14:30N 46°43' W 003°18'2 2.3
2017-May-16 13:29N 46°46' W 003°18'  
Track history (hours):
 
Tides and Currents Weather Stations Pressure Air Temp Water Temp Dewpoint Dewpoint Depression Visibility Wind Speed Wind Dir Waves Ship Positions

F/V Oceanie

Last reported at 2017-May-26 11:00 UTC. Time now 2017-May-26 14:46 UTC.
Position N 47°18' W 003°23'.

Length 16 m.

Type: Fishing. MMSI: 228370000.

Date/timePositionNaut miles runAvg speedWind from/ knotsBaromVisibWave heightAir tempDewpointWater temp
2017-May-26 11:00N 47°18' W 003°23'2 3.4
2017-May-26 10:30N 47°17' W 003°21'1 2.9
2017-May-26 10:00N 47°17' W 003°19'2 3.6
2017-May-26 09:30N 47°17' W 003°21'1 2.5
2017-May-26 09:00N 47°18' W 003°22'2 4.4
2017-May-26 08:30N 47°17' W 003°20'1 1.5
2017-May-26 08:00N 47°17' W 003°20'2 4.4
2017-May-26 07:30N 47°18' W 003°23'1 1.4
2017-May-26 07:00N 47°18' W 003°22'2 4.1
2017-May-26 06:30N 47°17' W 003°20'1 1.6
2017-May-26 06:00N 47°17' W 003°19'2 4.2
2017-May-26 05:30N 47°18' W 003°23'1 1.6
2017-May-26 05:00N 47°18' W 003°21'2 4.0
2017-May-26 04:30N 47°16' W 003°19'1 2.7
2017-May-26 04:00N 47°17' W 003°21'2 4.5
2017-May-26 03:30N 47°19' W 003°22'5 9.2
2017-May-26 03:00N 47°24' W 003°22'4 9.0
2017-May-26 02:30N 47°28' W 003°22'4 8.8
2017-May-26 02:00N 47°33' W 003°22'4 8.8
2017-May-26 01:30N 47°37' W 003°22'4 8.7
2017-May-26 01:00N 47°42' W 003°22'2 4.5
2017-May-26 00:30N 47°44' W 003°22'0 0.3
2017-May-26 00:00N 47°44' W 003°22'0 0.0
2017-May-25 23:30N 47°44' W 003°22'4 8.3
2017-May-25 23:00N 47°40' W 003°22'5 9.3
2017-May-25 22:30N 47°35' W 003°24'4 8.9
2017-May-25 22:00N 47°31' W 003°27'4 8.6
2017-May-25 21:30N 47°27' W 003°29'2 4.4
2017-May-25 21:00N 47°25' W 003°29'2 4.3
2017-May-25 20:30N 47°23' W 003°28'2 3.4
2017-May-25 20:00N 47°22' W 003°31'2 4.1
2017-May-25 19:30N 47°24' W 003°32'2 3.5
2017-May-25 19:00N 47°25' W 003°33'1 2.4
2017-May-25 18:30N 47°25' W 003°32'2 4.1
2017-May-25 18:00N 47°24' W 003°30'1 2.8
2017-May-25 17:30N 47°25' W 003°28'2 4.3
2017-May-25 17:00N 47°27' W 003°29'2 3.6
2017-May-25 16:30N 47°27' W 003°31'2 3.9
2017-May-25 16:00N 47°25' W 003°29'2 3.3
2017-May-25 15:30N 47°27' W 003°29'2 3.7
2017-May-25 15:00N 47°28' W 003°31'2 3.1
2017-May-25 14:30N 47°27' W 003°32'2 2.3
2017-May-25 13:30N 47°25' W 003°31'2 3.9
2017-May-25 13:00N 47°24' W 003°29'1 2.9
2017-May-25 12:30N 47°23' W 003°31'2 3.5
2017-May-25 12:00N 47°24' W 003°32'2 3.8
2017-May-25 11:30N 47°26' W 003°34'1 2.7
2017-May-25 11:00N 47°25' W 003°32'2 4.2
2017-May-25 10:30N 47°24' W 003°29'2 3.2
2017-May-25 10:00N 47°22' W 003°30'2 3.0
2017-May-25 09:30N 47°23' W 003°32'2 3.3
2017-May-25 09:00N 47°25' W 003°33'1 2.9
2017-May-25 08:30N 47°26' W 003°33'1 1.6
2017-May-25 08:00N 47°25' W 003°33'2 3.1
2017-May-25 07:30N 47°24' W 003°31'2 3.7
2017-May-25 07:00N 47°25' W 003°29'1 1.3
2017-May-25 06:30N 47°25' W 003°29'2 3.9
2017-May-25 06:00N 47°23' W 003°28'1 1.5
2017-May-25 05:30N 47°23' W 003°27'2 4.0
2017-May-25 05:00N 47°25' W 003°29'2 4.3
2017-May-25 04:30N 47°27' W 003°30'2 4.1
2017-May-25 04:00N 47°29' W 003°31'2 3.1
2017-May-25 03:30N 47°30' W 003°32'1 2.9
2017-May-25 03:00N 47°31' W 003°30'4 7.8
2017-May-25 02:30N 47°34' W 003°26'4 7.4
2017-May-25 02:00N 47°37' W 003°23'4 7.9
2017-May-25 01:30N 47°41' W 003°22'3 6.0
2017-May-25 01:00N 47°44' W 003°22'0 0.0
2017-May-25 00:30N 47°44' W 003°22'0 0.0
2017-May-25 00:00N 47°44' W 003°22'3 5.9
2017-May-24 23:30N 47°41' W 003°22'5 9.2
2017-May-24 23:00N 47°36' W 003°23'4 9.0
2017-May-24 22:30N 47°32' W 003°27'4 9.0
2017-May-24 22:00N 47°29' W 003°31'2 3.4
2017-May-24 21:30N 47°27' W 003°30'1 3.0
2017-May-24 21:00N 47°28' W 003°31'2 3.0
2017-May-24 20:30N 47°27' W 003°32'2 4.4
2017-May-24 20:00N 47°25' W 003°30'2 4.1
2017-May-24 19:30N 47°23' W 003°29'1 2.8
2017-May-24 19:00N 47°23' W 003°31'1 2.3
2017-May-24 18:30N 47°24' W 003°32'2 4.1
2017-May-24 18:00N 47°23' W 003°30'2 3.1
2017-May-24 17:30N 47°23' W 003°27'2 3.4
2017-May-24 17:00N 47°24' W 003°28'2 3.9
2017-May-24 16:30N 47°22' W 003°30'2 3.2
2017-May-24 16:00N 47°21' W 003°29'2 3.1
2017-May-24 15:30N 47°22' W 003°28'2 4.0
2017-May-24 15:00N 47°24' W 003°28'2 3.2
2017-May-24 14:30N 47°23' W 003°30'1 0.8
2017-May-24 13:30N 47°24' W 003°31'1 3.0
2017-May-24 13:00N 47°23' W 003°29'1 1.8
2017-May-24 12:30N 47°22' W 003°30'2 3.9
2017-May-24 12:00N 47°21' W 003°28'2 3.0
2017-May-24 11:30N 47°22' W 003°29'2 4.2
2017-May-24 11:00N 47°24' W 003°31'1 2.1
2017-May-24 10:30N 47°24' W 003°33'2 3.4
2017-May-24 10:00N 47°23' W 003°30'2 3.6
2017-May-24 09:30N 47°24' W 003°28'2 3.1
2017-May-24 09:00N 47°24' W 003°30'2 3.5
2017-May-24 08:30N 47°24' W 003°33'2 3.9
2017-May-24 08:00N 47°23' W 003°30'2 4.0
2017-May-24 07:30N 47°21' W 003°30'1 3.0
2017-May-24 07:00N 47°21' W 003°28'2 4.0
2017-May-24 06:30N 47°23' W 003°29'1 1.8
2017-May-24 06:00N 47°24' W 003°27'2 3.8
2017-May-24 05:30N 47°22' W 003°28'2 4.0
2017-May-24 05:00N 47°20' W 003°26'2 3.3
2017-May-24 04:30N 47°21' W 003°28'2 4.2
2017-May-24 04:00N 47°23' W 003°28'2 4.5
2017-May-24 03:30N 47°25' W 003°28'3 6.7
2017-May-24 03:00N 47°29' W 003°27'3 6.7
2017-May-24 02:30N 47°32' W 003°25'3 6.9
2017-May-24 02:00N 47°35' W 003°24'4 7.2
2017-May-24 01:30N 47°38' W 003°23'4 7.1
2017-May-24 01:00N 47°42' W 003°22'2 3.4
2017-May-24 00:30N 47°44' W 003°22'0 0.0
2017-May-24 00:00N 47°44' W 003°22'0 0.7
2017-May-23 23:30N 47°43' W 003°22'5 9.0
2017-May-23 23:00N 47°39' W 003°23'4 8.4
2017-May-23 22:30N 47°35' W 003°24'4 7.8
2017-May-23 22:00N 47°34' W 003°30'1 1.7
2017-May-23 21:30N 47°34' W 003°31'2 4.0
2017-May-23 21:00N 47°32' W 003°31'2 4.3
2017-May-23 20:30N 47°30' W 003°31'2 4.2
2017-May-23 20:00N 47°27' W 003°30'2 4.2
2017-May-23 19:30N 47°26' W 003°29'2 4.3
2017-May-23 19:00N 47°24' W 003°27'1 2.2
2017-May-23 18:30N 47°23' W 003°28'2 3.6
2017-May-23 18:00N 47°24' W 003°27'2 3.3
2017-May-23 17:30N 47°23' W 003°27'1 1.9
2017-May-23 17:00N 47°23' W 003°28'1 1.9
2017-May-23 16:30N 47°24' W 003°27'1 2.9
2017-May-23 16:00N 47°22' W 003°28'2 3.6
2017-May-23 15:30N 47°24' W 003°28'2 3.9
2017-May-23 15:00N 47°22' W 003°27'1 2.6
2017-May-23 14:30N 47°22' W 003°29'2 1.6
2017-May-23 13:30N 47°23' W 003°30'2 3.4
2017-May-23 13:00N 47°24' W 003°28'2 4.0
2017-May-23 12:30N 47°22' W 003°28'2 3.9
2017-May-23 12:00N 47°23' W 003°30'2 3.3
2017-May-23 11:30N 47°24' W 003°28'2 3.1
2017-May-23 11:01N 47°23' W 003°27'2 3.3
2017-May-23 10:30N 47°24' W 003°28'2 3.3
2017-May-23 10:01N 47°23' W 003°30'2 4.1
2017-May-23 09:30N 47°22' W 003°28'2 4.1
2017-May-23 09:00N 47°20' W 003°26'1 2.4
2017-May-23 08:30N 47°20' W 003°24'2 3.8
2017-May-23 08:00N 47°21' W 003°27'2 4.3
2017-May-23 07:30N 47°22' W 003°29'1 3.0
2017-May-23 07:00N 47°24' W 003°30'2 3.6
2017-May-23 06:30N 47°25' W 003°29'2 4.0
2017-May-23 06:00N 47°27' W 003°30'2 4.1
2017-May-23 05:30N 47°29' W 003°31'2 4.2
2017-May-23 05:00N 47°31' W 003°31'2 3.9
2017-May-23 04:31N 47°33' W 003°31'2 4.1
2017-May-23 04:00N 47°35' W 003°33'2 3.2
2017-May-23 03:30N 47°36' W 003°35'0 0.9
2017-May-23 03:00N 47°36' W 003°34'0 0.4
2017-May-23 02:30N 47°36' W 003°35'0 0.5
2017-May-23 02:01N 47°36' W 003°35'2 4.5
2017-May-23 01:30N 47°38' W 003°33'3 6.2
2017-May-23 01:00N 47°40' W 003°29'3 6.5
2017-May-23 00:31N 47°41' W 003°25'3 6.2
2017-May-23 00:01N 47°43' W 003°22'0 1.0
2017-May-22 23:30N 47°44' W 003°22'2 3.2
2017-May-22 23:00N 47°42' W 003°22'4 8.2
2017-May-22 22:30N 47°38' W 003°23'4 7.3
2017-May-22 22:00N 47°35' W 003°24'4 7.5
2017-May-22 21:30N 47°32' W 003°29'2 3.2
2017-May-22 21:00N 47°31' W 003°30'2 4.1
2017-May-22 20:30N 47°29' W 003°31'2 3.9
2017-May-22 20:00N 47°27' W 003°30'2 4.0
2017-May-22 19:30N 47°25' W 003°29'2 3.7
2017-May-22 19:01N 47°24' W 003°27'1 2.9
2017-May-22 18:30N 47°23' W 003°29'1 2.9
2017-May-22 18:00N 47°24' W 003°30'1 2.6
2017-May-22 17:30N 47°24' W 003°28'2 3.5
2017-May-22 17:01N 47°22' W 003°28'2 3.6
2017-May-22 16:30N 47°23' W 003°30'2 3.3
2017-May-22 16:01N 47°24' W 003°28'2 3.6
2017-May-22 15:31N 47°22' W 003°27'2 3.3
2017-May-22 15:00N 47°23' W 003°30'2 1.7
2017-May-22 14:00N 47°23' W 003°27'1 2.8
2017-May-22 13:29N 47°22' W 003°29'2 3.6
2017-May-22 13:00N 47°24' W 003°29'2 3.1
2017-May-22 12:30N 47°23' W 003°27'2 3.4
2017-May-22 12:01N 47°22' W 003°29'1 1.0
2017-May-22 11:30N 47°22' W 003°28'1 2.4
2017-May-22 11:00N 47°21' W 003°29'1 2.9
2017-May-22 10:30N 47°22' W 003°30'1 2.7
2017-May-22 10:01N 47°22' W 003°28'1 2.2
2017-May-22 09:30N 47°21' W 003°29'2 3.9
2017-May-22 09:00N 47°23' W 003°30'2 3.4
2017-May-22 08:30N 47°25' W 003°29'2 4.0
2017-May-22 08:01N 47°23' W 003°27'1 2.2
2017-May-22 07:31N 47°23' W 003°29'2 3.3
2017-May-22 07:00N 47°25' W 003°29'2 3.9
2017-May-22 06:30N 47°26' W 003°31'2 3.6
2017-May-22 06:00N 47°28' W 003°31'2 3.8
2017-May-22 05:30N 47°30' W 003°31'2 4.1
2017-May-22 05:00N 47°32' W 003°31'2 3.5
2017-May-22 04:30N 47°33' W 003°32'2 4.0
2017-May-22 04:00N 47°35' W 003°34'2 3.7
2017-May-22 03:30N 47°36' W 003°36'0 0.6
2017-May-22 03:00N 47°36' W 003°35'3 6.2
2017-May-22 02:30N 47°39' W 003°32'4 8.0
2017-May-22 02:00N 47°41' W 003°27'4 8.2
2017-May-22 01:30N 47°43' W 003°22'1 0.0
2017-May-19 23:00N 47°44' W 003°22'2 4.4
2017-May-19 22:30N 47°42' W 003°22'4 9.0
2017-May-19 22:00N 47°37' W 003°23'5 9.0
2017-May-19 21:30N 47°35' W 003°29'3 5.8
2017-May-19 21:00N 47°34' W 003°33'2 3.3
2017-May-19 20:30N 47°35' W 003°35'1 2.8
2017-May-19 20:00N 47°35' W 003°33'2 3.1
2017-May-19 19:30N 47°34' W 003°32'2 3.7
2017-May-19 19:00N 47°32' W 003°31'2 4.0
2017-May-19 18:30N 47°30' W 003°31'2 4.0
2017-May-19 18:00N 47°28' W 003°31'2 3.5
2017-May-19 17:30N 47°26' W 003°31'2 3.8
2017-May-19 17:00N 47°25' W 003°29'2 3.7
2017-May-19 16:30N 47°23' W 003°27'2 3.6
2017-May-19 16:00N 47°22' W 003°30'2 3.2
2017-May-19 15:30N 47°21' W 003°29'1 2.4
2017-May-19 15:00N 47°22' W 003°28'4 3.7
2017-May-19 14:00N 47°26' W 003°29'2 4.0
2017-May-19 13:30N 47°27' W 003°30'2 4.1
2017-May-19 13:00N 47°29' W 003°31'2 3.2
2017-May-19 12:30N 47°28' W 003°29'2 4.2
2017-May-19 12:00N 47°26' W 003°29'2 4.2
2017-May-19 11:30N 47°24' W 003°29'2 3.9
2017-May-19 11:00N 47°22' W 003°28'0 0.9
2017-May-19 10:30N 47°22' W 003°28'2 4.0
2017-May-19 10:00N 47°24' W 003°28'2 4.1
2017-May-19 09:30N 47°26' W 003°28'2 4.2
2017-May-19 09:00N 47°28' W 003°29'1 1.8
2017-May-19 08:30N 47°27' W 003°30'2 4.0
2017-May-19 08:00N 47°25' W 003°30'2 4.0
2017-May-19 07:30N 47°24' W 003°29'0 1.0
2017-May-19 07:00N 47°23' W 003°28'2 3.9
2017-May-19 06:30N 47°25' W 003°29'2 4.1
2017-May-19 06:00N 47°27' W 003°29'2 3.9
2017-May-19 05:30N 47°29' W 003°30'2 4.0
2017-May-19 05:00N 47°31' W 003°30'2 4.1
2017-May-19 04:30N 47°33' W 003°31'2 4.2
2017-May-19 04:00N 47°35' W 003°33'2 4.3
2017-May-19 03:30N 47°36' W 003°35'1 2.0
2017-May-19 03:00N 47°37' W 003°34'4 8.8
2017-May-19 02:30N 47°40' W 003°29'5 9.1
2017-May-19 02:00N 47°42' W 003°23'2 4.6
2017-May-19 01:30N 47°44' W 003°22'0 0.0
2017-May-19 01:00N 47°44' W 003°22'4 8.0
2017-May-19 00:30N 47°40' W 003°22'5 9.0
2017-May-19 00:00N 47°35' W 003°23'5 9.1
2017-May-18 23:30N 47°31' W 003°23'5 9.1
2017-May-18 23:00N 47°26' W 003°24'5 9.2
2017-May-18 22:30N 47°22' W 003°24'4 9.0
2017-May-18 22:00N 47°17' W 003°24'4 8.8
2017-May-18 21:30N 47°13' W 003°25'30 0.8
2017-May-17 06:50N 46°43' W 003°17'2 3.5
2017-May-17 06:20N 46°45' W 003°17'2 3.9
2017-May-17 05:56N 46°46' W 003°18'2 4.2
2017-May-17 05:26N 46°48' W 003°20'2 4.1
2017-May-17 05:00N 46°49' W 003°21'3 5.2
2017-May-17 04:30N 46°51' W 003°23'5 9.0
2017-May-17 03:59N 46°56' W 003°23'4 8.7
2017-May-17 03:30N 47°00' W 003°23'4 8.9
2017-May-17 03:00N 47°05' W 003°23'5 9.1
2017-May-17 02:30N 47°09' W 003°23'5 9.1
2017-May-17 01:59N 47°14' W 003°22'5 9.2
2017-May-17 01:27N 47°19' W 003°22'4 8.8
2017-May-17 00:57N 47°23' W 003°22'4 8.9
2017-May-17 00:30N 47°27' W 003°22'5 9.5
2017-May-17 00:00N 47°32' W 003°22'5 9.4
2017-May-16 23:30N 47°37' W 003°22'5 9.5
2017-May-16 22:59N 47°42' W 003°22'2 4.0
2017-May-16 22:30N 47°44' W 003°22'0 0.0
2017-May-16 22:00N 47°44' W 003°22'3 6.2
2017-May-16 21:29N 47°41' W 003°22'4 8.8
2017-May-16 21:00N 47°36' W 003°23'4 8.7
2017-May-16 20:30N 47°32' W 003°22'5 9.2
2017-May-16 19:58N 47°27' W 003°21'4 8.8
2017-May-16 19:28N 47°23' W 003°21'4 8.6
2017-May-16 19:00N 47°19' W 003°21'4 8.8
2017-May-16 18:30N 47°14' W 003°20'4 8.8
2017-May-16 18:00N 47°10' W 003°19'5 9.2
2017-May-16 17:30N 47°05' W 003°19'5 9.2
2017-May-16 17:00N 47°01' W 003°18'5 9.4
2017-May-16 16:30N 46°56' W 003°18'5 9.5
2017-May-16 16:00N 46°51' W 003°17'5 9.7
2017-May-16 15:30N 46°47' W 003°16'2 3.1
2017-May-16 15:00N 46°46' W 003°18'2 4.4
2017-May-16 14:30N 46°43' W 003°18'2 2.3
2017-May-16 13:29N 46°46' W 003°18'  

Dump ship's entire track history